sensor_id;sensor_type;location;lat;lon;timestamp;temperature;humidity
21298;DHT22;10808;48.010;11.326;2022-09-13T00:00:40;13.50;99.90
21298;DHT22;10808;48.010;11.326;2022-09-13T00:03:07;13.50;99.90
21298;DHT22;10808;48.010;11.326;2022-09-13T00:05:35;13.50;99.90
21298;DHT22;10808;48.010;11.326;2022-09-13T00:08:02;13.50;99.90
21298;DHT22;10808;48.010;11.326;2022-09-13T00:10:29;13.50;99.90
21298;DHT22;10808;48.010;11.326;2022-09-13T00:12:55;13.40;99.90
21298;DHT22;10808;48.010;11.326;2022-09-13T00:15:22;13.40;99.90
21298;DHT22;10808;48.010;11.326;2022-09-13T00:17:48;13.40;99.90
21298;DHT22;10808;48.010;11.326;2022-09-13T00:20:14;13.40;99.90
21298;DHT22;10808;48.010;11.326;2022-09-13T00:22:40;13.30;99.90
21298;DHT22;10808;48.010;11.326;2022-09-13T00:25:06;13.30;99.90
21298;DHT22;10808;48.010;11.326;2022-09-13T00:27:33;13.30;99.90
21298;DHT22;10808;48.010;11.326;2022-09-13T00:29:59;13.30;99.90
21298;DHT22;10808;48.010;11.326;2022-09-13T00:32:26;13.30;99.90
21298;DHT22;10808;48.010;11.326;2022-09-13T00:34:52;13.30;99.90
21298;DHT22;10808;48.010;11.326;2022-09-13T00:37:18;13.30;99.90
21298;DHT22;10808;48.010;11.326;2022-09-13T00:39:44;13.30;99.90
21298;DHT22;10808;48.010;11.326;2022-09-13T00:42:14;13.30;99.90
21298;DHT22;10808;48.010;11.326;2022-09-13T00:44:53;13.30;99.90
21298;DHT22;10808;48.010;11.326;2022-09-13T00:47:31;13.30;99.90
21298;DHT22;10808;48.010;11.326;2022-09-13T00:50:04;13.30;99.90
21298;DHT22;10808;48.010;11.326;2022-09-13T00:52:33;13.30;99.90
21298;DHT22;10808;48.010;11.326;2022-09-13T00:55:04;13.20;99.90
21298;DHT22;10808;48.010;11.326;2022-09-13T00:57:32;13.20;99.90
21298;DHT22;10808;48.010;11.326;2022-09-13T01:00:12;13.20;99.90
21298;DHT22;10808;48.010;11.326;2022-09-13T01:02:51;13.20;99.90
21298;DHT22;10808;48.010;11.326;2022-09-13T01:05:21;13.20;99.90
21298;DHT22;10808;48.010;11.326;2022-09-13T01:07:49;13.20;99.90
21298;DHT22;10808;48.010;11.326;2022-09-13T01:10:15;13.20;99.90
21298;DHT22;10808;48.010;11.326;2022-09-13T01:12:54;13.10;99.90
21298;DHT22;10808;48.010;11.326;2022-09-13T01:15:21;13.20;99.90
21298;DHT22;10808;48.010;11.326;2022-09-13T01:17:49;13.10;99.90
21298;DHT22;10808;48.010;11.326;2022-09-13T01:20:16;13.10;99.90
21298;DHT22;10808;48.010;11.326;2022-09-13T01:31:34;13.00;99.90
21298;DHT22;10808;48.010;11.326;2022-09-13T01:34:08;13.00;99.90
21298;DHT22;10808;48.010;11.326;2022-09-13T01:36:45;13.00;99.90
21298;DHT22;10808;48.010;11.326;2022-09-13T01:45:16;12.90;99.90
21298;DHT22;10808;48.010;11.326;2022-09-13T01:47:54;12.90;99.90
21298;DHT22;10808;48.010;11.326;2022-09-13T01:50:46;12.90;99.90
21298;DHT22;10808;48.010;11.326;2022-09-13T01:56:35;12.90;99.90
21298;DHT22;10808;48.010;11.326;2022-09-13T01:59:13;12.90;99.90
21298;DHT22;10808;48.010;11.326;2022-09-13T02:02:00;12.80;99.90
21298;DHT22;10808;48.010;11.326;2022-09-13T02:04:46;12.80;99.90
21298;DHT22;10808;48.010;11.326;2022-09-13T02:07:18;12.80;99.90
21298;DHT22;10808;48.010;11.326;2022-09-13T02:09:50;12.80;99.90
21298;DHT22;10808;48.010;11.326;2022-09-13T02:12:20;12.80;99.90
21298;DHT22;10808;48.010;11.326;2022-09-13T02:15:15;12.80;99.90
21298;DHT22;10808;48.010;11.326;2022-09-13T02:17:51;12.80;99.90
21298;DHT22;10808;48.010;11.326;2022-09-13T02:20:40;12.80;99.90
21298;DHT22;10808;48.010;11.326;2022-09-13T02:23:13;12.80;99.90
21298;DHT22;10808;48.010;11.326;2022-09-13T02:25:44;12.80;99.90
21298;DHT22;10808;48.010;11.326;2022-09-13T02:28:26;12.80;99.90
21298;DHT22;10808;48.010;11.326;2022-09-13T02:31:06;12.80;99.90
21298;DHT22;10808;48.010;11.326;2022-09-13T02:33:58;12.80;99.90
21298;DHT22;10808;48.010;11.326;2022-09-13T02:36:54;12.80;99.90
21298;DHT22;10808;48.010;11.326;2022-09-13T02:39:50;12.90;99.90
21298;DHT22;10808;48.010;11.326;2022-09-13T02:42:34;12.80;99.90
21298;DHT22;10808;48.010;11.326;2022-09-13T02:45:07;12.80;99.90
21298;DHT22;10808;48.010;11.326;2022-09-13T02:47:59;12.80;99.90
21298;DHT22;10808;48.010;11.326;2022-09-13T02:57:00;12.80;99.90
21298;DHT22;10808;48.010;11.326;2022-09-13T02:59:30;12.80;99.90
21298;DHT22;10808;48.010;11.326;2022-09-13T03:04:27;12.70;99.90
21298;DHT22;10808;48.010;11.326;2022-09-13T03:06:53;12.70;99.90
21298;DHT22;10808;48.010;11.326;2022-09-13T03:09:21;12.70;99.90
21298;DHT22;10808;48.010;11.326;2022-09-13T03:12:18;12.70;99.90
21298;DHT22;10808;48.010;11.326;2022-09-13T03:18:19;12.60;99.90
21298;DHT22;10808;48.010;11.326;2022-09-13T03:21:50;12.70;99.90
21298;DHT22;10808;48.010;11.326;2022-09-13T03:24:27;12.70;99.90
21298;DHT22;10808;48.010;11.326;2022-09-13T03:27:16;12.70;99.90
21298;DHT22;10808;48.010;11.326;2022-09-13T03:30:06;12.60;99.90
21298;DHT22;10808;48.010;11.326;2022-09-13T03:33:05;12.70;99.90
21298;DHT22;10808;48.010;11.326;2022-09-13T03:35:39;12.70;99.90
21298;DHT22;10808;48.010;11.326;2022-09-13T03:38:07;12.60;99.90
21298;DHT22;10808;48.010;11.326;2022-09-13T03:41:04;12.60;99.90
21298;DHT22;10808;48.010;11.326;2022-09-13T03:43:43;12.60;99.90
21298;DHT22;10808;48.010;11.326;2022-09-13T03:46:33;12.60;99.90
21298;DHT22;10808;48.010;11.326;2022-09-13T03:49:04;12.60;99.90
21298;DHT22;10808;48.010;11.326;2022-09-13T03:51:32;12.50;99.90
21298;DHT22;10808;48.010;11.326;2022-09-13T03:54:01;12.50;99.90
21298;DHT22;10808;48.010;11.326;2022-09-13T03:56:28;12.50;99.90
21298;DHT22;10808;48.010;11.326;2022-09-13T03:58:59;12.50;99.90
21298;DHT22;10808;48.010;11.326;2022-09-13T04:01:26;12.50;99.90
21298;DHT22;10808;48.010;11.326;2022-09-13T04:03:53;12.50;99.90
21298;DHT22;10808;48.010;11.326;2022-09-13T04:06:19;12.50;99.90
21298;DHT22;10808;48.010;11.326;2022-09-13T04:08:45;12.40;99.90
21298;DHT22;10808;48.010;11.326;2022-09-13T04:11:11;12.40;99.90
21298;DHT22;10808;48.010;11.326;2022-09-13T04:13:38;12.40;99.90
21298;DHT22;10808;48.010;11.326;2022-09-13T04:16:06;12.40;99.90
21298;DHT22;10808;48.010;11.326;2022-09-13T04:18:32;12.40;99.90
21298;DHT22;10808;48.010;11.326;2022-09-13T04:21:00;12.40;99.90
21298;DHT22;10808;48.010;11.326;2022-09-13T04:23:28;12.30;99.90
21298;DHT22;10808;48.010;11.326;2022-09-13T04:25:59;12.30;99.90
21298;DHT22;10808;48.010;11.326;2022-09-13T04:28:26;12.30;99.90
21298;DHT22;10808;48.010;11.326;2022-09-13T04:30:52;12.30;99.90
21298;DHT22;10808;48.010;11.326;2022-09-13T04:33:18;12.30;99.90
21298;DHT22;10808;48.010;11.326;2022-09-13T04:35:44;12.30;99.90
21298;DHT22;10808;48.010;11.326;2022-09-13T04:38:10;12.30;99.90
21298;DHT22;10808;48.010;11.326;2022-09-13T04:40:37;12.30;99.90
21298;DHT22;10808;48.010;11.326;2022-09-13T04:43:04;12.30;99.90
21298;DHT22;10808;48.010;11.326;2022-09-13T04:45:30;12.30;99.90
21298;DHT22;10808;48.010;11.326;2022-09-13T04:47:57;12.30;99.90
21298;DHT22;10808;48.010;11.326;2022-09-13T04:50:24;12.30;99.90
21298;DHT22;10808;48.010;11.326;2022-09-13T04:52:53;12.30;99.90
21298;DHT22;10808;48.010;11.326;2022-09-13T04:55:20;12.20;99.90
21298;DHT22;10808;48.010;11.326;2022-09-13T04:57:46;12.30;99.90
21298;DHT22;10808;48.010;11.326;2022-09-13T05:00:12;12.20;99.90
21298;DHT22;10808;48.010;11.326;2022-09-13T05:02:38;12.20;99.90
21298;DHT22;10808;48.010;11.326;2022-09-13T05:05:04;12.20;99.90
21298;DHT22;10808;48.010;11.326;2022-09-13T05:07:31;12.20;99.90
21298;DHT22;10808;48.010;11.326;2022-09-13T05:09:57;12.20;99.90
21298;DHT22;10808;48.010;11.326;2022-09-13T05:12:23;12.30;99.90
21298;DHT22;10808;48.010;11.326;2022-09-13T05:14:49;12.30;99.90
21298;DHT22;10808;48.010;11.326;2022-09-13T05:17:15;12.30;99.90
21298;DHT22;10808;48.010;11.326;2022-09-13T05:19:41;12.30;99.90
21298;DHT22;10808;48.010;11.326;2022-09-13T05:22:07;12.30;99.90
21298;DHT22;10808;48.010;11.326;2022-09-13T05:24:33;12.30;99.90
21298;DHT22;10808;48.010;11.326;2022-09-13T05:26:59;12.30;99.90
21298;DHT22;10808;48.010;11.326;2022-09-13T05:29:25;12.30;99.90
21298;DHT22;10808;48.010;11.326;2022-09-13T05:31:51;12.40;99.90
21298;DHT22;10808;48.010;11.326;2022-09-13T05:34:18;12.40;99.90
21298;DHT22;10808;48.010;11.326;2022-09-13T05:36:45;12.40;99.90
21298;DHT22;10808;48.010;11.326;2022-09-13T05:39:13;12.40;99.90
21298;DHT22;10808;48.010;11.326;2022-09-13T05:41:40;12.50;99.90
21298;DHT22;10808;48.010;11.326;2022-09-13T05:44:06;12.40;99.90
21298;DHT22;10808;48.010;11.326;2022-09-13T05:46:33;12.50;99.90
21298;DHT22;10808;48.010;11.326;2022-09-13T05:48:59;12.50;99.90
21298;DHT22;10808;48.010;11.326;2022-09-13T05:51:25;12.50;99.90
21298;DHT22;10808;48.010;11.326;2022-09-13T05:53:52;12.60;99.90
21298;DHT22;10808;48.010;11.326;2022-09-13T05:56:24;12.70;99.90
21298;DHT22;10808;48.010;11.326;2022-09-13T05:58:51;12.70;99.90
21298;DHT22;10808;48.010;11.326;2022-09-13T06:01:20;12.70;99.90
21298;DHT22;10808;48.010;11.326;2022-09-13T06:03:48;12.80;99.90
21298;DHT22;10808;48.010;11.326;2022-09-13T06:06:14;12.80;99.90
21298;DHT22;10808;48.010;11.326;2022-09-13T06:08:40;12.90;99.90
21298;DHT22;10808;48.010;11.326;2022-09-13T06:11:08;13.00;99.90
21298;DHT22;10808;48.010;11.326;2022-09-13T06:13:35;13.00;99.90
21298;DHT22;10808;48.010;11.326;2022-09-13T06:16:03;13.10;99.90
21298;DHT22;10808;48.010;11.326;2022-09-13T06:18:31;13.20;99.90
21298;DHT22;10808;48.010;11.326;2022-09-13T06:21:06;13.30;99.90
21298;DHT22;10808;48.010;11.326;2022-09-13T06:23:32;13.40;99.90
21298;DHT22;10808;48.010;11.326;2022-09-13T06:26:03;13.50;99.90
21298;DHT22;10808;48.010;11.326;2022-09-13T06:28:31;13.60;99.90
21298;DHT22;10808;48.010;11.326;2022-09-13T06:31:08;13.80;99.90
21298;DHT22;10808;48.010;11.326;2022-09-13T06:33:35;13.90;99.90
21298;DHT22;10808;48.010;11.326;2022-09-13T06:36:04;14.00;99.90
21298;DHT22;10808;48.010;11.326;2022-09-13T06:38:30;14.20;99.90
21298;DHT22;10808;48.010;11.326;2022-09-13T06:41:06;14.30;99.90
21298;DHT22;10808;48.010;11.326;2022-09-13T06:43:33;14.50;99.90
21298;DHT22;10808;48.010;11.326;2022-09-13T06:46:07;14.70;99.90
21298;DHT22;10808;48.010;11.326;2022-09-13T06:48:35;14.80;99.90
21298;DHT22;10808;48.010;11.326;2022-09-13T06:51:05;14.90;99.90
21298;DHT22;10808;48.010;11.326;2022-09-13T06:53:33;15.10;99.90
21298;DHT22;10808;48.010;11.326;2022-09-13T06:56:02;15.20;99.90
21298;DHT22;10808;48.010;11.326;2022-09-13T06:58:29;15.40;99.90
21298;DHT22;10808;48.010;11.326;2022-09-13T07:03:36;15.80;99.90
21298;DHT22;10808;48.010;11.326;2022-09-13T07:06:07;15.90;99.90
21298;DHT22;10808;48.010;11.326;2022-09-13T07:08:34;16.10;99.90
21298;DHT22;10808;48.010;11.326;2022-09-13T07:11:00;16.30;99.90
21298;DHT22;10808;48.010;11.326;2022-09-13T07:13:26;16.40;99.90
21298;DHT22;10808;48.010;11.326;2022-09-13T07:15:52;16.60;99.90
21298;DHT22;10808;48.010;11.326;2022-09-13T07:18:18;16.80;99.90
21298;DHT22;10808;48.010;11.326;2022-09-13T07:20:44;17.00;99.90
21298;DHT22;10808;48.010;11.326;2022-09-13T07:23:11;17.30;99.90
21298;DHT22;10808;48.010;11.326;2022-09-13T07:25:37;17.40;99.90
21298;DHT22;10808;48.010;11.326;2022-09-13T07:28:03;17.60;99.90
21298;DHT22;10808;48.010;11.326;2022-09-13T07:30:29;17.70;99.90
21298;DHT22;10808;48.010;11.326;2022-09-13T07:32:55;17.70;99.90
21298;DHT22;10808;48.010;11.326;2022-09-13T07:35:21;17.90;99.90
21298;DHT22;10808;48.010;11.326;2022-09-13T07:37:47;18.00;99.90
21298;DHT22;10808;48.010;11.326;2022-09-13T07:40:13;18.20;99.90
21298;DHT22;10808;48.010;11.326;2022-09-13T07:42:39;18.40;99.90
21298;DHT22;10808;48.010;11.326;2022-09-13T07:45:05;18.50;99.90
21298;DHT22;10808;48.010;11.326;2022-09-13T07:47:32;18.70;99.90
21298;DHT22;10808;48.010;11.326;2022-09-13T07:49:58;18.80;99.90
21298;DHT22;10808;48.010;11.326;2022-09-13T07:52:24;19.00;99.90
21298;DHT22;10808;48.010;11.326;2022-09-13T07:54:50;19.10;99.90
21298;DHT22;10808;48.010;11.326;2022-09-13T07:57:16;19.20;99.90
21298;DHT22;10808;48.010;11.326;2022-09-13T07:59:42;19.30;99.90
21298;DHT22;10808;48.010;11.326;2022-09-13T08:02:08;19.50;99.90
21298;DHT22;10808;48.010;11.326;2022-09-13T08:04:34;19.70;99.90
21298;DHT22;10808;48.010;11.326;2022-09-13T08:07:00;19.90;99.90
21298;DHT22;10808;48.010;11.326;2022-09-13T08:09:26;20.00;99.90
21298;DHT22;10808;48.010;11.326;2022-09-13T08:11:52;20.20;99.90
21298;DHT22;10808;48.010;11.326;2022-09-13T08:14:20;20.30;99.90
21298;DHT22;10808;48.010;11.326;2022-09-13T08:16:47;20.50;99.90
21298;DHT22;10808;48.010;11.326;2022-09-13T08:19:15;20.60;99.90
21298;DHT22;10808;48.010;11.326;2022-09-13T08:21:45;20.70;99.90
21298;DHT22;10808;48.010;11.326;2022-09-13T08:24:18;20.80;99.90
21298;DHT22;10808;48.010;11.326;2022-09-13T08:26:48;20.90;99.90
21298;DHT22;10808;48.010;11.326;2022-09-13T08:29:14;21.10;99.90
21298;DHT22;10808;48.010;11.326;2022-09-13T08:31:40;21.30;99.90
21298;DHT22;10808;48.010;11.326;2022-09-13T08:34:10;21.40;99.90
21298;DHT22;10808;48.010;11.326;2022-09-13T08:36:37;21.60;99.90
21298;DHT22;10808;48.010;11.326;2022-09-13T08:39:05;21.90;99.90
21298;DHT22;10808;48.010;11.326;2022-09-13T08:44:24;22.40;99.90
21298;DHT22;10808;48.010;11.326;2022-09-13T08:49:35;23.20;99.90
21298;DHT22;10808;48.010;11.326;2022-09-13T08:54:40;23.70;99.90
21298;DHT22;10808;48.010;11.326;2022-09-13T09:02:47;24.40;98.90
21298;DHT22;10808;48.010;11.326;2022-09-13T09:05:22;24.60;99.90
21298;DHT22;10808;48.010;11.326;2022-09-13T09:08:01;24.80;99.80
21298;DHT22;10808;48.010;11.326;2022-09-13T09:10:32;25.00;99.90
21298;DHT22;10808;48.010;11.326;2022-09-13T09:13:08;25.20;99.90
21298;DHT22;10808;48.010;11.326;2022-09-13T09:15:51;25.50;98.90
21298;DHT22;10808;48.010;11.326;2022-09-13T09:18:22;25.60;98.60
21298;DHT22;10808;48.010;11.326;2022-09-13T09:20:55;25.80;99.30
21298;DHT22;10808;48.010;11.326;2022-09-13T09:23:49;25.90;99.30
21298;DHT22;10808;48.010;11.326;2022-09-13T09:28:49;26.10;99.50
21298;DHT22;10808;48.010;11.326;2022-09-13T09:34:16;26.60;98.30
21298;DHT22;10808;48.010;11.326;2022-09-13T09:37:07;26.70;98.70
21298;DHT22;10808;48.010;11.326;2022-09-13T09:39:33;26.70;97.00
21298;DHT22;10808;48.010;11.326;2022-09-13T09:42:14;26.80;97.40
21298;DHT22;10808;48.010;11.326;2022-09-13T09:44:44;27.00;95.70
21298;DHT22;10808;48.010;11.326;2022-09-13T09:47:21;26.90;95.00
21298;DHT22;10808;48.010;11.326;2022-09-13T09:50:09;26.70;94.40
21298;DHT22;10808;48.010;11.326;2022-09-13T09:53:02;26.70;93.60
21298;DHT22;10808;48.010;11.326;2022-09-13T09:55:36;26.60;94.00
21298;DHT22;10808;48.010;11.326;2022-09-13T09:58:06;26.60;93.80
21298;DHT22;10808;48.010;11.326;2022-09-13T10:00:37;26.60;94.10
21298;DHT22;10808;48.010;11.326;2022-09-13T10:03:23;26.90;94.60
21298;DHT22;10808;48.010;11.326;2022-09-13T10:05:50;27.10;93.10
21298;DHT22;10808;48.010;11.326;2022-09-13T10:08:29;27.10;92.60
21298;DHT22;10808;48.010;11.326;2022-09-13T10:10:59;27.30;93.00
21298;DHT22;10808;48.010;11.326;2022-09-13T10:13:26;27.40;93.10
21298;DHT22;10808;48.010;11.326;2022-09-13T10:15:56;27.80;92.10
21298;DHT22;10808;48.010;11.326;2022-09-13T10:18:24;28.00;92.30
21298;DHT22;10808;48.010;11.326;2022-09-13T10:21:05;28.10;91.90
21298;DHT22;10808;48.010;11.326;2022-09-13T10:23:36;28.30;91.70
21298;DHT22;10808;48.010;11.326;2022-09-13T10:26:09;28.40;91.70
21298;DHT22;10808;48.010;11.326;2022-09-13T10:28:59;28.60;91.90
21298;DHT22;10808;48.010;11.326;2022-09-13T10:31:33;28.80;91.00
21298;DHT22;10808;48.010;11.326;2022-09-13T10:34:22;29.10;91.30
21298;DHT22;10808;48.010;11.326;2022-09-13T10:37:02;29.40;91.30
21298;DHT22;10808;48.010;11.326;2022-09-13T10:39:31;29.30;90.40
21298;DHT22;10808;48.010;11.326;2022-09-13T10:45:01;29.00;90.70
21298;DHT22;10808;48.010;11.326;2022-09-13T10:47:44;28.90;90.10
21298;DHT22;10808;48.010;11.326;2022-09-13T10:50:18;29.00;90.90
21298;DHT22;10808;48.010;11.326;2022-09-13T10:52:50;29.10;90.90
21298;DHT22;10808;48.010;11.326;2022-09-13T11:00:23;29.20;89.40
21298;DHT22;10808;48.010;11.326;2022-09-13T11:05:58;29.40;87.60
21298;DHT22;10808;48.010;11.326;2022-09-13T11:11:17;29.70;87.10
21298;DHT22;10808;48.010;11.326;2022-09-13T11:13:51;29.70;87.80
21298;DHT22;10808;48.010;11.326;2022-09-13T11:19:19;30.10;90.70
21298;DHT22;10808;48.010;11.326;2022-09-13T11:24:55;29.70;85.70
21298;DHT22;10808;48.010;11.326;2022-09-13T11:27:43;29.50;84.50
21298;DHT22;10808;48.010;11.326;2022-09-13T11:30:21;29.50;83.40
21298;DHT22;10808;48.010;11.326;2022-09-13T11:38:37;29.80;83.70
21298;DHT22;10808;48.010;11.326;2022-09-13T11:41:24;29.80;83.00
21298;DHT22;10808;48.010;11.326;2022-09-13T11:47:38;30.40;81.30
21298;DHT22;10808;48.010;11.326;2022-09-13T11:56:10;30.20;79.50
21298;DHT22;10808;48.010;11.326;2022-09-13T11:58:54;30.40;81.30
21298;DHT22;10808;48.010;11.326;2022-09-13T12:01:33;30.40;78.70
21298;DHT22;10808;48.010;11.326;2022-09-13T12:04:14;30.40;78.50
21298;DHT22;10808;48.010;11.326;2022-09-13T12:06:45;30.40;79.60
21298;DHT22;10808;48.010;11.326;2022-09-13T12:09:27;30.50;79.30
21298;DHT22;10808;48.010;11.326;2022-09-13T12:12:11;30.20;78.60
21298;DHT22;10808;48.010;11.326;2022-09-13T12:14:53;30.40;81.90
21298;DHT22;10808;48.010;11.326;2022-09-13T12:17:42;30.50;81.60
21298;DHT22;10808;48.010;11.326;2022-09-13T12:20:38;31.00;82.70
21298;DHT22;10808;48.010;11.326;2022-09-13T12:23:05;31.10;78.20
21298;DHT22;10808;48.010;11.326;2022-09-13T12:28:38;31.50;81.30
21298;DHT22;10808;48.010;11.326;2022-09-13T12:31:19;31.90;80.20
21298;DHT22;10808;48.010;11.326;2022-09-13T12:33:46;31.90;79.40
21298;DHT22;10808;48.010;11.326;2022-09-13T12:36:28;31.70;80.30
21298;DHT22;10808;48.010;11.326;2022-09-13T12:53:06;32.80;76.50
21298;DHT22;10808;48.010;11.326;2022-09-13T12:58:52;32.80;73.00
21298;DHT22;10808;48.010;11.326;2022-09-13T13:01:26;32.80;73.30
21298;DHT22;10808;48.010;11.326;2022-09-13T13:04:02;32.70;74.40
21298;DHT22;10808;48.010;11.326;2022-09-13T13:06:40;32.70;72.20
21298;DHT22;10808;48.010;11.326;2022-09-13T13:09:40;32.80;69.70
21298;DHT22;10808;48.010;11.326;2022-09-13T13:12:24;32.80;69.00
21298;DHT22;10808;48.010;11.326;2022-09-13T13:14:57;32.80;71.80
21298;DHT22;10808;48.010;11.326;2022-09-13T13:17:51;32.80;71.20
21298;DHT22;10808;48.010;11.326;2022-09-13T13:20:47;32.70;71.30
21298;DHT22;10808;48.010;11.326;2022-09-13T13:23:48;32.80;70.10
21298;DHT22;10808;48.010;11.326;2022-09-13T13:29:32;32.90;71.20
21298;DHT22;10808;48.010;11.326;2022-09-13T13:34:40;33.10;73.30
21298;DHT22;10808;48.010;11.326;2022-09-13T13:52:38;32.40;73.00
21298;DHT22;10808;48.010;11.326;2022-09-13T13:55:29;32.40;70.00
21298;DHT22;10808;48.010;11.326;2022-09-13T14:00:29;32.60;70.30
21298;DHT22;10808;48.010;11.326;2022-09-13T14:07:59;33.40;68.80
21298;DHT22;10808;48.010;11.326;2022-09-13T14:13:33;33.40;71.20
21298;DHT22;10808;48.010;11.326;2022-09-13T14:19:26;34.40;70.40
21298;DHT22;10808;48.010;11.326;2022-09-13T14:22:15;34.80;69.50
21298;DHT22;10808;48.010;11.326;2022-09-13T14:24:44;34.90;71.50
21298;DHT22;10808;48.010;11.326;2022-09-13T14:27:22;35.00;71.90
21298;DHT22;10808;48.010;11.326;2022-09-13T14:29:55;35.10;69.60
21298;DHT22;10808;48.010;11.326;2022-09-13T14:32:27;35.20;70.20
21298;DHT22;10808;48.010;11.326;2022-09-13T14:35:02;35.20;73.60
21298;DHT22;10808;48.010;11.326;2022-09-13T14:37:35;35.10;67.70
21298;DHT22;10808;48.010;11.326;2022-09-13T14:42:42;34.60;69.40
21298;DHT22;10808;48.010;11.326;2022-09-13T14:45:17;34.40;69.30
21298;DHT22;10808;48.010;11.326;2022-09-13T14:47:51;34.30;72.00
21298;DHT22;10808;48.010;11.326;2022-09-13T14:50:22;34.20;69.40
21298;DHT22;10808;48.010;11.326;2022-09-13T14:55:19;34.10;73.20
21298;DHT22;10808;48.010;11.326;2022-09-13T14:57:50;33.90;68.60
21298;DHT22;10808;48.010;11.326;2022-09-13T15:00:21;33.70;72.80
21298;DHT22;10808;48.010;11.326;2022-09-13T15:02:53;33.60;74.60
21298;DHT22;10808;48.010;11.326;2022-09-13T15:05:22;33.50;72.60
21298;DHT22;10808;48.010;11.326;2022-09-13T15:07:49;33.40;72.60
21298;DHT22;10808;48.010;11.326;2022-09-13T15:10:25;33.30;72.50
21298;DHT22;10808;48.010;11.326;2022-09-13T15:17:59;32.80;76.10
21298;DHT22;10808;48.010;11.326;2022-09-13T15:20:30;32.70;73.50
21298;DHT22;10808;48.010;11.326;2022-09-13T15:23:16;32.60;76.50
21298;DHT22;10808;48.010;11.326;2022-09-13T15:25:55;32.60;79.10
21298;DHT22;10808;48.010;11.326;2022-09-13T15:28:33;32.50;77.20
21298;DHT22;10808;48.010;11.326;2022-09-13T15:31:02;32.50;76.30
21298;DHT22;10808;48.010;11.326;2022-09-13T15:33:32;32.30;76.70
21298;DHT22;10808;48.010;11.326;2022-09-13T15:36:26;32.20;77.70
21298;DHT22;10808;48.010;11.326;2022-09-13T15:41:36;31.90;79.00
21298;DHT22;10808;48.010;11.326;2022-09-13T15:44:07;31.80;81.10
21298;DHT22;10808;48.010;11.326;2022-09-13T15:47:02;31.70;82.50
21298;DHT22;10808;48.010;11.326;2022-09-13T15:49:32;31.50;80.40
21298;DHT22;10808;48.010;11.326;2022-09-13T15:52:00;31.50;80.60
21298;DHT22;10808;48.010;11.326;2022-09-13T15:54:32;31.30;83.00
21298;DHT22;10808;48.010;11.326;2022-09-13T15:56:58;31.20;84.00
21298;DHT22;10808;48.010;11.326;2022-09-13T15:59:24;31.20;82.10
21298;DHT22;10808;48.010;11.326;2022-09-13T16:01:51;31.00;81.10
21298;DHT22;10808;48.010;11.326;2022-09-13T16:04:18;30.80;82.00
21298;DHT22;10808;48.010;11.326;2022-09-13T16:06:44;30.70;83.20
21298;DHT22;10808;48.010;11.326;2022-09-13T16:09:22;30.60;82.40
21298;DHT22;10808;48.010;11.326;2022-09-13T16:11:50;30.40;83.50
21298;DHT22;10808;48.010;11.326;2022-09-13T16:14:17;30.40;83.90
21298;DHT22;10808;48.010;11.326;2022-09-13T16:16:44;30.30;83.20
21298;DHT22;10808;48.010;11.326;2022-09-13T16:19:18;30.20;84.80
21298;DHT22;10808;48.010;11.326;2022-09-13T16:21:46;30.10;83.80
21298;DHT22;10808;48.010;11.326;2022-09-13T16:24:12;29.90;83.20
21298;DHT22;10808;48.010;11.326;2022-09-13T16:26:39;29.70;84.00
21298;DHT22;10808;48.010;11.326;2022-09-13T16:29:05;29.50;85.20
21298;DHT22;10808;48.010;11.326;2022-09-13T16:31:32;29.40;85.90
21298;DHT22;10808;48.010;11.326;2022-09-13T16:33:58;29.30;86.10
21298;DHT22;10808;48.010;11.326;2022-09-13T16:36:24;29.10;86.80
21298;DHT22;10808;48.010;11.326;2022-09-13T16:38:56;28.80;87.50
21298;DHT22;10808;48.010;11.326;2022-09-13T16:41:23;28.70;88.70
21298;DHT22;10808;48.010;11.326;2022-09-13T16:43:49;28.70;89.20
21298;DHT22;10808;48.010;11.326;2022-09-13T16:46:15;28.50;89.90
21298;DHT22;10808;48.010;11.326;2022-09-13T16:48:41;28.50;89.60
21298;DHT22;10808;48.010;11.326;2022-09-13T16:51:09;28.40;90.00
21298;DHT22;10808;48.010;11.326;2022-09-13T16:53:37;28.30;90.50
21298;DHT22;10808;48.010;11.326;2022-09-13T16:56:23;28.00;91.00
21298;DHT22;10808;48.010;11.326;2022-09-13T16:58:50;27.80;91.40
21298;DHT22;10808;48.010;11.326;2022-09-13T17:01:22;27.60;91.80
21298;DHT22;10808;48.010;11.326;2022-09-13T17:03:49;27.40;92.10
21298;DHT22;10808;48.010;11.326;2022-09-13T17:06:17;27.30;92.60
21298;DHT22;10808;48.010;11.326;2022-09-13T17:08:56;27.20;92.60
21298;DHT22;10808;48.010;11.326;2022-09-13T17:11:24;27.00;92.90
21298;DHT22;10808;48.010;11.326;2022-09-13T17:13:51;26.80;93.30
21298;DHT22;10808;48.010;11.326;2022-09-13T17:18:45;26.60;93.90
21298;DHT22;10808;48.010;11.326;2022-09-13T17:21:12;26.50;93.90
21298;DHT22;10808;48.010;11.326;2022-09-13T17:23:38;26.40;94.00
21298;DHT22;10808;48.010;11.326;2022-09-13T17:26:04;26.40;93.90
21298;DHT22;10808;48.010;11.326;2022-09-13T17:28:30;26.30;94.20
21298;DHT22;10808;48.010;11.326;2022-09-13T17:30:56;26.20;94.30
21298;DHT22;10808;48.010;11.326;2022-09-13T17:33:22;26.10;94.50
21298;DHT22;10808;48.010;11.326;2022-09-13T17:36:01;26.10;94.70
21298;DHT22;10808;48.010;11.326;2022-09-13T17:38:28;26.00;95.00
21298;DHT22;10808;48.010;11.326;2022-09-13T17:41:08;25.90;95.30
21298;DHT22;10808;48.010;11.326;2022-09-13T17:43:36;25.70;95.20
21298;DHT22;10808;48.010;11.326;2022-09-13T17:46:07;25.50;95.30
21298;DHT22;10808;48.010;11.326;2022-09-13T17:48:33;25.30;95.80
21298;DHT22;10808;48.010;11.326;2022-09-13T17:51:05;25.10;96.20
21298;DHT22;10808;48.010;11.326;2022-09-13T17:53:36;24.90;96.30
21298;DHT22;10808;48.010;11.326;2022-09-13T17:56:02;24.80;96.30
21298;DHT22;10808;48.010;11.326;2022-09-13T17:58:28;24.70;96.30
21298;DHT22;10808;48.010;11.326;2022-09-13T18:01:06;24.50;96.60
21298;DHT22;10808;48.010;11.326;2022-09-13T18:03:33;24.40;96.70
21298;DHT22;10808;48.010;11.326;2022-09-13T18:06:00;24.30;96.60
21298;DHT22;10808;48.010;11.326;2022-09-13T18:08:29;24.10;96.80
21298;DHT22;10808;48.010;11.326;2022-09-13T18:11:01;24.00;96.60
21298;DHT22;10808;48.010;11.326;2022-09-13T18:13:29;23.90;96.70
21298;DHT22;10808;48.010;11.326;2022-09-13T18:16:00;23.90;96.50
21298;DHT22;10808;48.010;11.326;2022-09-13T18:18:26;23.80;96.60
21298;DHT22;10808;48.010;11.326;2022-09-13T18:20:52;23.60;96.60
21298;DHT22;10808;48.010;11.326;2022-09-13T18:23:18;23.50;97.40